Time;durP1;ratioP1;P1;durP2;ratioP2;P2;SDS_P1;SDS_P2;PMS_P1;PMS_P2;Temp;Humidity;BMP_temperature;BMP_pressure;BME280_temperature;BME280_humidity;BME280_pressure;Samples;Min_cycle;Max_cycle;Signal;HPM_P1;HPM_P2
2023/11/03 00:01:26;;;;;;;2.67;0.57;;;9.60;1.00;;;;;;5076191;28;20384;-86
2023/11/03 00:03:51;;;;;;;3.65;0.90;;;9.40;1.00;;;;;;5075095;28;20396;-86
2023/11/03 00:06:17;;;;;;;3.75;0.90;;;9.60;1.00;;;;;;5070802;28;20409;-87
2023/11/03 00:08:42;;;;;;;2.25;0.70;;;9.60;1.00;;;;;;5075480;28;20383;-88
2023/11/03 00:11:08;;;;;;;1.53;0.63;;;9.50;1.00;;;;;;5059349;28;20390;-87
2023/11/03 00:13:34;;;;;;;1.87;0.70;;;9.70;1.00;;;;;;5068274;28;20918;-88
2023/11/03 00:16:00;;;;;;;2.15;0.63;;;9.60;1.00;;;;;;5074307;28;20403;-87
2023/11/03 00:18:26;;;;;;;1.92;0.60;;;9.70;1.00;;;;;;5075597;28;20384;-87
2023/11/03 00:20:57;;;;;;;2.10;0.60;;;9.60;1.00;;;;;;5098695;22;20496;-87
2023/11/03 00:27:09;;;;;;;2.00;0.70;;;10.40;1.00;;;;;;4991867;28;20740;-85
2023/11/03 00:30:14;;;;;;;1.67;0.98;;;9.20;1.00;;;;;;5009639;28;20401;-86
2023/11/03 00:32:46;;;;;;;1.00;0.60;;;8.50;1.00;;;;;;5042408;28;20398;-84
2023/11/03 00:35:18;;;;;;;1.88;0.70;;;10.40;1.00;;;;;;5056491;28;20477;-85
2023/11/03 00:37:47;;;;;;;2.10;1.00;;;11.50;1.00;;;;;;5040500;28;20394;-84
2023/11/03 00:40:13;;;;;;;1.13;0.70;;;8.60;1.00;;;;;;5048926;28;20402;-84
2023/11/03 00:43:02;;;;;;;1.13;0.47;;;9.90;1.00;;;;;;5050965;28;20394;-85
2023/11/03 00:45:49;;;;;;;1.40;0.60;;;11.40;1.00;;;;;;5052682;28;20400;-86
2023/11/03 00:48:26;;;;;;;2.53;0.70;;;10.30;1.00;;;;;;5048197;28;20927;-85
2023/11/03 00:51:10;;;;;;;;;;;;;;;;;;;;;
2023/11/03 00:53:50;;;;;;;2.10;0.90;;;12.50;1.00;;;;;;5050149;28;20835;-85
2023/11/03 00:56:36;;;;;;;1.38;0.60;;;8.90;1.00;;;;;;5042659;28;20398;-85
2023/11/03 00:59:43;;;;;;;2.75;0.93;;;8.80;1.00;;;;;;5046451;28;20393;-84
2023/11/03 01:02:30;;;;;;;2.15;0.68;;;10.50;1.00;;;;;;5042906;28;20390;-85
2023/11/03 01:05:04;;;;;;;3.00;0.60;;;13.70;1.00;;;;;;5037474;28;20924;-86
2023/11/03 01:07:35;;;;;;;1.10;0.70;;;9.50;1.00;;;;;;5051315;28;20386;-84
2023/11/03 01:10:01;;;;;;;1.10;0.40;;;11.60;1.00;;;;;;5045903;28;20415;-85
2023/11/03 01:12:50;;;;;;;1.67;0.70;;;12.50;1.00;;;;;;5045281;28;20401;-85
2023/11/03 01:15:21;;;;;;;1.73;0.57;;;8.50;1.00;;;;;;5030322;28;20915;-84
2023/11/03 01:18:16;;;;;;;3.57;0.80;;;8.90;1.00;;;;;;5013846;28;20419;-84
2023/11/03 01:20:48;;;;;;;3.50;0.80;;;9.80;1.00;;;;;;5053501;28;20402;-84
2023/11/03 01:23:28;;;;;;;1.13;0.65;;;11.30;1.00;;;;;;5052244;28;20389;-84
2023/11/03 01:25:54;;;;;;;1.42;0.80;;;10.40;1.00;;;;;;5046342;28;20415;-84
2023/11/03 01:28:36;;;;;;;;;;;;;;;;;;;;;
2023/11/03 01:31:38;;;;;;;2.10;0.65;;;9.10;1.00;;;;;;5051205;28;20864;-85
2023/11/03 01:37:29;;;;;;;3.55;0.75;;;10.80;1.00;;;;;;4970196;28;20380;-86
2023/11/03 01:44:25;;;;;;;1.50;0.90;;;11.00;1.00;;;;;;4889184;29;20440;-86
2023/11/03 01:46:53;;;;;;;2.78;0.90;;;8.80;1.00;;;;;;4876607;29;20590;-86
2023/11/03 01:49:24;;;;;;;4.40;0.90;;;10.10;1.00;;;;;;4933332;29;20488;-87
2023/11/03 01:51:57;;;;;;;4.00;0.83;;;9.40;1.00;;;;;;5018703;28;20445;-85
2023/11/03 01:54:53;;;;;;;1.70;0.60;;;12.60;1.00;;;;;;5051969;28;20415;-86
2023/11/03 01:57:44;;;;;;;4.18;1.00;;;7.30;1.00;;;;;;5050399;28;20381;-87
2023/11/03 02:04:11;;;;;;;1.50;0.75;;;9.50;1.00;;;;;;4989495;28;20383;-87
2023/11/03 02:06:48;;;;;;;2.35;0.70;;;9.80;1.00;;;;;;4989695;28;20841;-87
2023/11/03 02:09:14;;;;;;;1.90;0.80;;;9.80;1.00;;;;;;5048330;28;20731;-87
2023/11/03 02:11:55;;;;;;;1.40;0.73;;;9.00;1.00;;;;;;5049745;28;20439;-87
2023/11/03 02:14:36;;;;;;;2.95;0.80;;;11.60;1.00;;;;;;5050374;28;20473;-87
2023/11/03 02:17:30;;;;;;;3.15;1.00;;;9.30;1.00;;;;;;5049973;28;20389;-87
2023/11/03 02:20:29;;;;;;;2.40;0.90;;;9.40;1.00;;;;;;5055934;28;20496;-88
2023/11/03 02:22:56;;;;;;;3.00;0.90;;;12.20;1.00;;;;;;5071399;28;20403;-90
2023/11/03 02:25:52;;;;;;;1.70;0.70;;;9.30;1.00;;;;;;5056355;28;20436;-88
2023/11/03 02:28:21;;;;;;;4.13;1.20;;;9.80;1.00;;;;;;5050228;28;20809;-87
2023/11/03 02:30:46;;;;;;;5.18;1.20;;;12.60;1.00;;;;;;5046846;28;20421;-87
2023/11/03 02:33:15;;;;;;;2.78;0.80;;;9.30;1.00;;;;;;5050709;28;20385;-88
2023/11/03 02:35:41;;;;;;;2.92;1.00;;;9.20;1.00;;;;;;5050231;28;20385;-87
2023/11/03 02:38:19;;;;;;;4.05;0.90;;;11.80;1.00;;;;;;5050486;28;20423;-86
2023/11/03 02:41:04;;;;;;;3.10;1.08;;;9.10;1.00;;;;;;5050404;28;21055;-87
2023/11/03 02:43:50;;;;;;;2.85;0.90;;;9.00;1.00;;;;;;5050046;28;20900;-87
2023/11/03 02:46:23;;;;;;;3.70;0.70;;;9.10;1.00;;;;;;5061080;28;20419;-89
2023/11/03 02:48:54;;;;;;;1.23;0.70;;;10.50;1.00;;;;;;5059928;28;20811;-87
2023/11/03 02:51:47;;;;;;;;;;;;;;;;;;;;;
2023/11/03 02:54:17;;;;;;;2.15;0.80;;;9.10;1.00;;;;;;5072151;28;20477;-86
2023/11/03 02:56:43;;;;;;;3.30;1.10;;;9.40;1.00;;;;;;5073045;28;20389;-88
2023/11/03 02:59:11;;;;;;;2.50;0.67;;;8.10;1.00;;;;;;5060532;28;20497;-88
2023/11/03 03:02:29;;;;;;;1.70;0.60;;;8.10;1.00;;;;;;5059648;28;20502;-87
2023/11/03 03:08:22;;;;;;;3.88;0.90;;;9.80;1.00;;;;;;5077378;28;20379;-89
2023/11/03 03:11:06;;;;;;;;;;;;;;;;;;;;;
2023/11/03 03:13:49;;;;;;;1.90;0.88;;;11.80;1.00;;;;;;5068952;28;20436;-88
2023/11/03 03:16:27;;;;;;;3.20;1.13;;;8.90;1.00;;;;;;5054725;28;20397;-86
2023/11/03 03:18:57;;;;;;;2.17;1.10;;;8.70;1.00;;;;;;5054734;28;20408;-86
2023/11/03 03:21:40;;;;;;;2.40;0.80;;;9.00;1.00;;;;;;5054437;28;20785;-86
2023/11/03 03:24:11;;;;;;;1.65;0.73;;;11.50;1.00;;;;;;5053914;28;20397;-87
2023/11/03 03:26:56;;;;;;;2.53;0.80;;;8.90;1.00;;;;;;5053349;28;20893;-86
2023/11/03 03:29:22;;;;;;;1.40;0.80;;;8.80;1.00;;;;;;5051673;28;20400;-87
2023/11/03 03:31:57;;;;;;;2.83;0.95;;;12.00;1.00;;;;;;5052903;28;20397;-88
2023/11/03 03:34:29;;;;;;;2.50;0.90;;;9.10;1.00;;;;;;5053363;28;20421;-87
2023/11/03 03:37:00;;;;;;;3.03;0.70;;;9.00;1.00;;;;;;5054398;28;20381;-87
2023/11/03 03:39:32;;;;;;;2.65;0.90;;;7.10;1.00;;;;;;5053118;28;20397;-87
2023/11/03 03:42:10;;;;;;;2.30;0.90;;;11.50;1.00;;;;;;5053072;28;20389;-87
2023/11/03 03:44:48;;;;;;;1.30;0.70;;;10.30;1.00;;;;;;5052784;28;20416;-87
2023/11/03 03:47:36;;;;;;;2.55;0.90;;;8.60;1.00;;;;;;5053985;28;20426;-87
2023/11/03 03:50:03;;;;;;;4.00;1.00;;;10.90;1.00;;;;;;5054769;28;20400;-87
2023/11/03 03:52:38;;;;;;;4.05;1.20;;;9.20;1.00;;;;;;5056214;28;20397;-88
2023/11/03 03:55:16;;;;;;;4.10;0.80;;;8.40;1.00;;;;;;5052784;28;20393;-87
2023/11/03 03:57:42;;;;;;;3.10;1.10;;;10.10;1.00;;;;;;5052585;28;20625;-87
2023/11/03 04:03:10;;;;;;;3.42;1.30;;;8.80;1.00;;;;;;5054349;28;20396;-87
2023/11/03 04:05:38;;;;;;;4.20;1.00;;;10.40;1.00;;;;;;5054492;28;20448;-87
2023/11/03 04:08:19;;;;;;;5.45;1.42;;;10.00;1.00;;;;;;5052066;28;20442;-87
2023/11/03 04:10:53;;;;;;;3.83;1.00;;;8.90;1.00;;;;;;5053206;28;20396;-87
2023/11/03 04:13:19;;;;;;;6.70;1.30;;;8.90;1.00;;;;;;5062792;28;20389;-88
2023/11/03 04:15:54;;;;;;;4.20;1.20;;;11.90;1.00;;;;;;5057678;28;20393;-87
2023/11/03 04:18:44;;;;;;;3.38;1.13;;;9.90;1.00;;;;;;5060634;28;20715;-87
2023/11/03 04:21:12;;;;;;;3.17;1.00;;;9.90;1.00;;;;;;5051999;28;20443;-86
2023/11/03 04:23:40;;;;;;;6.00;1.30;;;10.20;1.00;;;;;;5052775;28;20476;-87
2023/11/03 04:26:06;;;;;;;5.30;1.40;;;8.90;1.00;;;;;;5051617;28;20401;-88
2023/11/03 04:28:56;;;;;;;3.55;0.90;;;10.10;1.00;;;;;;5052506;28;20463;-87
2023/11/03 04:31:28;;;;;;;3.20;1.10;;;10.30;1.00;;;;;;5049611;28;20393;-86
2023/11/03 04:34:06;;;;;;;2.63;1.10;;;8.90;1.00;;;;;;5050934;28;20496;-86
2023/11/03 04:36:54;;;;;;;4.70;1.60;;;10.00;1.00;;;;;;5050820;28;20433;-87
2023/11/03 04:39:25;;;;;;;2.17;1.20;;;8.00;1.00;;;;;;5051419;28;20861;-86
2023/11/03 04:41:59;;;;;;;5.60;1.15;;;8.80;1.00;;;;;;5050906;28;20393;-86
2023/11/03 04:44:43;;;;;;;2.60;1.90;;;9.70;1.00;;;;;;5051935;28;20500;-87
2023/11/03 04:47:14;;;;;;;2.83;0.80;;;11.70;1.00;;;;;;5053694;28;20412;-86
2023/11/03 04:49:47;;;;;;;4.25;1.02;;;8.70;1.00;;;;;;5051619;28;20446;-86
2023/11/03 04:52:16;;;;;;;3.35;0.93;;;9.60;1.00;;;;;;5052702;28;20381;-87
2023/11/03 04:54:57;;;;;;;3.42;1.00;;;10.50;1.00;;;;;;5051033;28;20428;-87
2023/11/03 04:58:10;;;;;;;2.77;1.23;;;11.50;1.00;;;;;;5051421;28;20485;-87
2023/11/03 05:01:32;;;;;;;;;;;;;;;;;;;;;
2023/11/03 05:04:10;;;;;;;2.50;1.10;;;9.10;1.00;;;;;;5052198;28;20396;-86
2023/11/03 05:07:27;;;;;;;3.65;1.40;;;9.00;1.00;;;;;;5051273;28;20954;-87
2023/11/03 05:10:16;;;;;;;4.13;1.38;;;8.50;1.00;;;;;;5050023;28;20808;-87
2023/11/03 05:16:26;;;;;;;3.78;1.50;;;8.70;1.00;;;;;;4997894;28;20482;-87
2023/11/03 05:19:38;;;;;;;4.30;1.20;;;8.80;1.00;;;;;;5052508;28;20389;-87
2023/11/03 05:25:48;;;;;;;4.90;2.05;;;8.80;1.00;;;;;;5008987;28;20406;-87
2023/11/03 05:28:57;;;;;;;3.97;1.20;;;9.20;1.00;;;;;;5071259;28;20441;-87
2023/11/03 05:32:06;;;;;;;3.50;1.10;;;8.00;1.00;;;;;;5067077;28;20925;-87
2023/11/03 05:38:22;;;;;;;3.35;0.93;;;7.70;1.00;;;;;;5028781;28;20400;-87
2023/11/03 05:45:10;;;;;;;3.78;1.17;;;9.00;1.00;;;;;;4970747;28;20490;-87
2023/11/03 05:48:28;;;;;;;2.70;1.00;;;8.90;1.00;;;;;;5031903;28;20943;-87
2023/11/03 05:51:21;;;;;;;4.35;1.70;;;9.30;1.00;;;;;;5044994;28;20959;-87
2023/11/03 05:53:50;;;;;;;3.20;1.10;;;8.90;1.00;;;;;;5051122;28;20467;-87
2023/11/03 05:56:30;;;;;;;4.78;1.50;;;12.00;1.00;;;;;;5050271;28;20519;-87
2023/11/03 05:58:58;;;;;;;3.40;0.90;;;9.00;1.00;;;;;;5050285;28;20425;-87
2023/11/03 06:01:33;;;;;;;5.60;1.15;;;9.90;1.00;;;;;;5050481;28;20403;-88
2023/11/03 06:04:08;;;;;;;4.35;1.00;;;9.10;1.00;;;;;;5050428;28;20765;-87
2023/11/03 06:06:40;;;;;;;2.53;1.40;;;7.30;1.00;;;;;;5036419;28;20401;-87
2023/11/03 06:09:06;;;;;;;2.70;0.70;;;8.40;1.00;;;;;;5049926;28;20750;-87
2023/11/03 06:11:40;;;;;;;2.65;0.90;;;10.60;1.00;;;;;;5050761;28;20385;-88
2023/11/03 06:14:15;;;;;;;4.20;1.40;;;6.70;1.00;;;;;;5051296;28;20434;-87
2023/11/03 06:16:58;;;;;;;3.67;1.10;;;8.40;1.00;;;;;;5051423;28;20385;-87
2023/11/03 06:19:24;;;;;;;2.60;1.10;;;8.10;1.00;;;;;;5074363;22;20841;-84
2023/11/03 06:21:49;;;;;;;2.33;0.90;;;8.50;1.00;;;;;;5052261;28;20385;-83
2023/11/03 06:24:15;;;;;;;2.97;1.10;;;8.50;1.00;;;;;;5051672;28;20634;-83
2023/11/03 06:26:40;;;;;;;1.40;0.90;;;8.40;1.00;;;;;;5039749;28;20411;-82
2023/11/03 06:29:06;;;;;;;3.83;1.03;;;8.40;1.00;;;;;;5032900;28;20385;-82
2023/11/03 06:31:33;;;;;;;3.33;1.00;;;8.40;1.00;;;;;;5046775;28;20480;-81
2023/11/03 06:33:59;;;;;;;3.47;1.10;;;8.40;1.00;;;;;;5054313;28;20384;-82
2023/11/03 06:36:24;;;;;;;3.23;1.30;;;8.30;1.00;;;;;;5043488;28;20394;-82
2023/11/03 06:38:50;;;;;;;4.77;1.10;;;8.30;1.00;;;;;;5053451;28;20777;-82
2023/11/03 06:41:16;;;;;;;3.47;0.70;;;8.20;1.00;;;;;;5055892;28;20884;-82
2023/11/03 06:43:42;;;;;;;1.90;1.00;;;8.20;1.00;;;;;;5052926;28;20383;-81
2023/11/03 06:46:09;;;;;;;4.00;0.90;;;8.20;1.00;;;;;;5036928;28;20902;-82
2023/11/03 06:48:35;;;;;;;2.50;1.10;;;8.20;1.00;;;;;;5040361;28;20756;-81
2023/11/03 06:51:01;;;;;;;2.35;1.00;;;8.20;1.00;;;;;;5036998;28;20441;-81
2023/11/03 06:53:28;;;;;;;3.10;0.90;;;7.90;1.00;;;;;;5055484;28;20389;-81
2023/11/03 06:55:54;;;;;;;3.33;1.08;;;8.10;1.00;;;;;;5056889;28;20868;-82
2023/11/03 06:58:19;;;;;;;2.10;1.10;;;8.10;1.00;;;;;;5058402;28;20418;-82
2023/11/03 07:00:46;;;;;;;3.57;1.37;;;8.10;1.00;;;;;;5054956;28;20390;-82
2023/11/03 07:03:12;;;;;;;2.95;1.00;;;8.10;1.00;;;;;;5039944;28;20404;-82
2023/11/03 07:05:38;;;;;;;2.93;1.50;;;8.10;1.00;;;;;;5074695;28;20413;-81
2023/11/03 07:08:05;;;;;;;5.75;1.30;;;8.00;1.00;;;;;;5049346;28;20426;-81
2023/11/03 07:10:30;;;;;;;3.47;1.10;;;8.10;1.00;;;;;;5048909;28;20383;-82
2023/11/03 07:12:56;;;;;;;2.60;0.90;;;8.10;1.00;;;;;;5038180;28;20427;-82
2023/11/03 07:15:23;;;;;;;2.70;1.00;;;8.10;1.00;;;;;;5034251;28;20462;-81
2023/11/03 07:17:49;;;;;;;5.13;1.27;;;8.20;1.00;;;;;;5052715;28;20381;-82
2023/11/03 07:20:15;;;;;;;2.80;1.00;;;8.30;1.00;;;;;;5047259;28;20429;-81
2023/11/03 07:22:40;;;;;;;2.70;1.13;;;8.40;1.00;;;;;;5035767;28;20922;-81
2023/11/03 07:25:06;;;;;;;2.05;0.95;;;8.30;1.00;;;;;;5033896;28;20402;-81
2023/11/03 07:27:32;;;;;;;5.20;1.15;;;8.20;1.00;;;;;;5049563;28;20724;-82
2023/11/03 07:29:57;;;;;;;4.10;1.10;;;8.30;1.00;;;;;;5056303;28;20394;-81
2023/11/03 07:32:23;;;;;;;3.50;1.10;;;8.30;1.00;;;;;;5058622;28;20392;-82
2023/11/03 07:34:48;;;;;;;3.20;0.93;;;8.40;1.00;;;;;;5056811;28;20476;-83
2023/11/03 07:37:15;;;;;;;2.45;1.00;;;8.40;1.00;;;;;;5055976;28;20516;-82
2023/11/03 07:39:41;;;;;;;1.98;0.90;;;8.50;1.00;;;;;;5036982;28;20399;-82
2023/11/03 07:42:07;;;;;;;2.33;1.00;;;8.40;1.00;;;;;;5036918;28;20402;-82
2023/11/03 07:44:32;;;;;;;2.30;0.90;;;8.50;1.00;;;;;;5047415;28;20433;-82
2023/11/03 07:46:58;;;;;;;4.10;1.42;;;8.40;1.00;;;;;;5039085;28;20886;-82
2023/11/03 07:49:23;;;;;;;4.00;1.30;;;8.40;1.00;;;;;;5054642;28;20480;-82
2023/11/03 07:51:49;;;;;;;2.50;1.00;;;8.50;1.00;;;;;;5070975;28;20402;-81
2023/11/03 07:54:15;;;;;;;2.67;1.40;;;8.50;1.00;;;;;;5058317;28;20922;-83
2023/11/03 07:56:42;;;;;;;2.80;0.93;;;8.40;1.00;;;;;;5052083;28;20435;-82
2023/11/03 07:59:08;;;;;;;3.15;1.10;;;8.60;1.00;;;;;;5035705;28;20870;-82
2023/11/03 08:01:33;;;;;;;2.47;1.10;;;8.50;1.00;;;;;;5034842;28;20423;-82
2023/11/03 08:03:59;;;;;;;5.17;1.10;;;8.50;1.00;;;;;;5035599;28;20900;-83
2023/11/03 08:06:25;;;;;;;4.37;1.50;;;8.10;1.00;;;;;;5036803;28;20570;-82
2023/11/03 08:08:51;;;;;;;4.13;1.42;;;8.50;1.00;;;;;;5055825;28;20956;-82
2023/11/03 08:11:16;;;;;;;4.68;1.73;;;8.50;1.00;;;;;;5043619;28;20406;-81
2023/11/03 08:13:42;;;;;;;2.30;1.33;;;8.40;1.00;;;;;;5034784;28;20415;-82
2023/11/03 08:16:08;;;;;;;1.50;1.10;;;8.50;1.00;;;;;;5035916;28;20417;-81
2023/11/03 08:18:34;;;;;;;3.65;1.00;;;8.40;1.00;;;;;;5034099;28;20453;-80
2023/11/03 08:21:00;;;;;;;2.25;0.85;;;8.40;1.00;;;;;;5042361;28;20824;-81
2023/11/03 08:23:26;;;;;;;2.55;0.98;;;8.40;1.00;;;;;;5054279;28;20382;-82
2023/11/03 08:25:52;;;;;;;5.50;1.77;;;8.50;1.00;;;;;;5055785;28;20429;-82
2023/11/03 08:28:17;;;;;;;2.22;0.90;;;8.40;1.00;;;;;;5034625;28;20426;-82
2023/11/03 08:30:43;;;;;;;4.65;1.30;;;8.50;1.00;;;;;;5035645;28;20398;-82
2023/11/03 08:33:09;;;;;;;2.20;1.10;;;8.60;1.00;;;;;;5035284;28;20895;-83
2023/11/03 08:35:35;;;;;;;5.55;1.20;;;8.50;1.00;;;;;;5035374;28;20391;-82
2023/11/03 08:38:02;;;;;;;1.13;0.80;;;8.40;1.00;;;;;;5037705;28;20538;-82
2023/11/03 08:40:28;;;;;;;1.83;1.30;;;8.50;1.00;;;;;;5037167;28;20395;-81
2023/11/03 08:42:54;;;;;;;4.00;1.02;;;8.50;1.00;;;;;;5038767;28;20455;-82
2023/11/03 08:45:19;;;;;;;1.90;0.88;;;8.50;1.00;;;;;;5044972;28;20409;-82
2023/11/03 08:47:45;;;;;;;1.38;0.63;;;8.60;1.00;;;;;;5048200;28;20809;-83
2023/11/03 08:50:13;;;;;;;2.17;0.80;;;8.50;1.00;;;;;;5049476;28;20828;-83
2023/11/03 08:52:40;;;;;;;2.80;0.77;;;8.70;1.00;;;;;;5045542;28;20383;-82
2023/11/03 08:55:06;;;;;;;3.47;1.00;;;8.70;1.00;;;;;;5037822;28;20395;-83
2023/11/03 08:57:36;;;;;;;5.28;1.88;;;8.80;1.00;;;;;;5043876;28;20396;-83
2023/11/03 09:00:11;;;;;;;5.78;1.80;;;8.70;1.00;;;;;;5047025;28;20453;-83
2023/11/03 09:02:37;;;;;;;3.00;2.07;;;8.80;1.00;;;;;;5056767;28;20494;-83
2023/11/03 09:05:04;;;;;;;3.67;2.38;;;8.80;1.00;;;;;;5046608;28;20415;-82
2023/11/03 09:07:30;;;;;;;4.88;2.28;;;8.90;1.00;;;;;;5036965;28;20379;-83
2023/11/03 09:09:57;;;;;;;2.70;1.35;;;8.80;1.00;;;;;;5035454;28;20450;-83
2023/11/03 09:12:22;;;;;;;2.80;1.17;;;8.90;1.00;;;;;;5037937;28;20810;-83
2023/11/03 09:14:48;;;;;;;1.90;1.00;;;8.80;1.00;;;;;;5037751;28;20464;-83
2023/11/03 09:17:15;;;;;;;2.07;0.83;;;8.80;1.00;;;;;;5037124;28;20407;-81
2023/11/03 09:19:41;;;;;;;1.70;0.70;;;8.80;1.00;;;;;;5044184;28;20425;-81
2023/11/03 09:22:07;;;;;;;2.15;0.73;;;8.70;1.00;;;;;;5054825;28;20400;-82
2023/11/03 09:24:32;;;;;;;1.40;0.70;;;8.80;1.00;;;;;;5053038;28;20388;-82
2023/11/03 09:26:58;;;;;;;1.80;0.67;;;8.90;1.00;;;;;;5052865;28;20743;-82
2023/11/03 09:29:24;;;;;;;0.70;0.50;;;9.00;1.00;;;;;;5060467;28;20393;-82
2023/11/03 09:31:50;;;;;;;2.60;0.80;;;8.90;1.00;;;;;;5057541;28;20821;-82
2023/11/03 09:34:16;;;;;;;2.95;0.70;;;8.90;1.00;;;;;;5053297;28;20379;-82
2023/11/03 09:36:42;;;;;;;2.22;0.63;;;8.90;1.00;;;;;;5051715;28;20395;-80
2023/11/03 09:39:09;;;;;;;3.25;1.13;;;8.90;1.00;;;;;;5052463;28;20410;-78
2023/11/03 09:41:39;;;;;;;1.90;0.90;;;8.90;1.00;;;;;;5052183;28;20387;-82
2023/11/03 09:44:05;;;;;;;2.70;0.70;;;8.90;1.00;;;;;;5055674;28;20791;-83
2023/11/03 09:46:33;;;;;;;2.17;0.95;;;9.00;1.00;;;;;;5051626;28;20417;-82
2023/11/03 09:48:59;;;;;;;3.25;0.90;;;9.00;1.00;;;;;;5055995;28;20731;-83
2023/11/03 09:51:28;;;;;;;2.00;0.80;;;9.10;1.00;;;;;;5047775;28;20395;-84
2023/11/03 09:53:57;;;;;;;2.67;0.90;;;9.00;1.00;;;;;;5049663;28;20393;-85
2023/11/03 09:56:23;;;;;;;1.90;0.80;;;9.10;1.00;;;;;;5049555;28;20391;-84
2023/11/03 09:58:49;;;;;;;2.10;1.00;;;9.00;1.00;;;;;;5045449;28;20395;-84
2023/11/03 10:01:16;;;;;;;2.30;1.00;;;9.10;1.00;;;;;;5048357;28;20827;-83
2023/11/03 10:03:45;;;;;;;3.10;0.85;;;9.10;1.00;;;;;;5048972;28;20434;-84
2023/11/03 10:06:11;;;;;;;2.03;0.70;;;9.20;1.00;;;;;;5046951;28;20438;-84
2023/11/03 10:08:44;;;;;;;2.13;1.00;;;9.20;1.00;;;;;;5054377;28;20389;-84
2023/11/03 10:11:10;;;;;;;1.90;0.60;;;9.20;1.00;;;;;;5054695;28;20585;-84
2023/11/03 10:13:37;;;;;;;1.87;0.73;;;9.10;1.00;;;;;;5057096;28;20404;-84
2023/11/03 10:16:06;;;;;;;3.25;1.08;;;9.30;1.00;;;;;;5056235;28;20870;-82
2023/11/03 10:18:32;;;;;;;3.20;0.90;;;9.50;1.00;;;;;;5057247;28;20397;-82
2023/11/03 10:20:57;;;;;;;2.47;1.20;;;9.30;1.00;;;;;;5054747;28;20409;-83
2023/11/03 10:23:23;;;;;;;3.40;0.90;;;9.20;1.00;;;;;;5037392;28;20439;-84
2023/11/03 10:25:50;;;;;;;2.60;0.80;;;9.10;1.00;;;;;;5037988;28;20431;-83
2023/11/03 10:28:17;;;;;;;3.78;1.05;;;9.10;1.00;;;;;;5038939;28;20454;-84
2023/11/03 10:30:43;;;;;;;3.15;0.80;;;9.10;1.00;;;;;;5055903;28;20873;-84
2023/11/03 10:33:12;;;;;;;2.45;1.00;;;9.20;1.00;;;;;;5057423;28;20385;-84
2023/11/03 10:35:37;;;;;;;1.73;0.65;;;9.30;1.00;;;;;;5058019;28;20390;-84
2023/11/03 10:38:03;;;;;;;2.70;1.00;;;9.20;1.00;;;;;;5054782;28;20391;-84
2023/11/03 10:40:28;;;;;;;2.40;1.20;;;9.10;1.00;;;;;;5037377;28;20413;-83
2023/11/03 10:42:56;;;;;;;2.25;0.95;;;9.10;1.00;;;;;;5036406;28;20383;-84
2023/11/03 10:45:30;;;;;;;2.70;0.90;;;9.20;1.00;;;;;;5055612;28;20401;-83
2023/11/03 10:48:19;;;;;;;1.90;0.70;;;9.20;1.00;;;;;;5040030;28;20397;-84
2023/11/03 10:50:54;;;;;;;3.60;0.70;;;9.20;1.00;;;;;;5033904;28;20399;-83
2023/11/03 10:53:48;;;;;;;3.03;0.88;;;9.20;1.00;;;;;;5036045;28;20441;-83
2023/11/03 10:56:15;;;;;;;1.63;0.70;;;9.30;1.00;;;;;;5049806;28;20920;-84
2023/11/03 10:58:41;;;;;;;2.85;0.77;;;9.40;1.00;;;;;;5036535;28;20402;-84
2023/11/03 11:01:10;;;;;;;5.30;0.90;;;9.40;1.00;;;;;;5034783;28;20398;-83
2023/11/03 11:04:00;;;;;;;1.33;0.60;;;9.40;1.00;;;;;;5038922;28;20900;-83
2023/11/03 11:06:29;;;;;;;2.10;1.30;;;9.20;1.00;;;;;;5056566;28;20481;-83
2023/11/03 11:09:08;;;;;;;3.20;1.90;;;9.20;1.00;;;;;;5044624;28;20415;-83
2023/11/03 11:11:37;;;;;;;2.20;1.60;;;9.40;1.00;;;;;;5052048;28;20430;-85
2023/11/03 11:14:24;;;;;;;2.30;1.00;;;9.40;1.00;;;;;;5058780;28;20822;-84
2023/11/03 11:16:54;;;;;;;3.80;1.27;;;9.50;1.00;;;;;;5039393;28;20383;-84
2023/11/03 11:19:31;;;;;;;3.83;1.30;;;9.50;1.00;;;;;;5036133;28;20424;-85
2023/11/03 11:21:59;;;;;;;1.80;1.02;;;9.40;1.00;;;;;;5049345;28;20886;-84
2023/11/03 11:24:28;;;;;;;2.22;1.05;;;9.60;1.00;;;;;;5069143;28;20519;-83
2023/11/03 11:27:11;;;;;;;1.73;0.90;;;9.20;1.00;;;;;;5075563;28;20398;-82
2023/11/03 11:29:37;;;;;;;2.40;1.10;;;9.60;1.00;;;;;;5057647;28;20391;-83
2023/11/03 11:32:08;;;;;;;2.00;1.30;;;9.60;1.00;;;;;;5054661;28;20414;-82
2023/11/03 11:34:37;;;;;;;2.78;1.05;;;9.70;1.00;;;;;;5048970;28;20412;-82
2023/11/03 11:37:26;;;;;;;2.70;1.20;;;9.90;1.00;;;;;;5054282;28;20802;-81
2023/11/03 11:39:54;;;;;;;2.65;0.80;;;8.60;1.00;;;;;;5052169;28;20404;-81
2023/11/03 11:42:21;;;;;;;3.90;1.00;;;9.80;1.00;;;;;;5054306;28;20483;-83
2023/11/03 11:44:50;;;;;;;1.92;1.00;;;9.80;1.00;;;;;;5049412;28;20417;-82
2023/11/03 11:47:17;;;;;;;2.22;1.00;;;9.80;1.00;;;;;;5055368;28;20420;-83
2023/11/03 11:49:42;;;;;;;3.10;1.75;;;9.90;1.00;;;;;;5041652;28;20402;-82
2023/11/03 11:52:08;;;;;;;2.03;1.40;;;9.80;1.00;;;;;;5035691;28;20379;-83
2023/11/03 11:54:34;;;;;;;2.50;1.30;;;9.90;1.00;;;;;;5034949;28;20411;-82
2023/11/03 11:57:02;;;;;;;7.63;3.72;;;10.00;1.00;;;;;;5035606;28;20410;-83
2023/11/03 11:59:28;;;;;;;2.10;1.33;;;10.00;1.00;;;;;;5047749;28;20393;-83
2023/11/03 12:01:54;;;;;;;4.43;0.80;;;10.10;1.00;;;;;;5055001;28;20937;-82
2023/11/03 12:04:21;;;;;;;1.13;0.97;;;9.50;1.00;;;;;;5057238;28;20425;-82
2023/11/03 12:06:47;;;;;;;2.53;1.10;;;9.80;1.00;;;;;;5050362;28;20446;-84
2023/11/03 12:09:15;;;;;;;1.53;1.00;;;9.80;1.00;;;;;;5040737;28;20413;-83
2023/11/03 12:11:42;;;;;;;3.08;1.10;;;9.90;1.00;;;;;;5062154;28;20386;-85
2023/11/03 12:14:08;;;;;;;3.03;1.00;;;9.70;1.00;;;;;;5062767;28;20405;-83
2023/11/03 12:16:35;;;;;;;1.60;1.00;;;9.70;1.00;;;;;;5055511;28;20399;-83
2023/11/03 12:19:04;;;;;;;3.78;1.10;;;9.80;1.00;;;;;;5040185;28;20387;-82
2023/11/03 12:21:30;;;;;;;2.22;0.70;;;9.90;1.00;;;;;;5054487;28;20485;-83
2023/11/03 12:24:00;;;;;;;2.80;0.70;;;9.80;1.00;;;;;;5051503;28;20938;-83
2023/11/03 12:30:22;;;;;;;2.90;0.90;;;11.40;1.00;;;;;;5053893;28;20360;-86
2023/11/03 12:37:15;;;;;;;3.10;1.00;;;11.50;1.00;;;;;;4996420;28;21050;-86
2023/11/03 12:40:38;;;;;;;3.20;1.30;;;10.50;1.00;;;;;;4995839;28;20413;-86
2023/11/03 12:50:34;;;;;;;3.45;1.23;;;10.50;1.00;;;;;;5052337;28;20403;-86
2023/11/03 13:03:19;;;;;;;2.72;0.95;;;9.90;1.00;;;;;;4998215;28;20415;-87
2023/11/03 13:20:14;;;;;;;3.45;1.00;;;10.70;1.00;;;;;;5052191;28;20377;-86
2023/11/03 13:37:45;;;;;;;3.70;0.90;;;10.60;1.00;;;;;;5010065;28;20381;-87
2023/11/03 13:40:24;;;;;;;3.42;0.73;;;8.80;1.00;;;;;;4993278;28;20860;-87
2023/11/03 13:43:38;;;;;;;1.42;1.05;;;12.00;1.00;;;;;;4984695;28;20424;-87
2023/11/03 14:00:46;;;;;;;1.70;1.10;;;11.50;1.00;;;;;;4971795;28;20388;-88
2023/11/03 14:06:24;;;;;;;3.53;1.13;;;10.40;1.00;;;;;;5013169;28;20427;-88
2023/11/03 14:09:48;;;;;;;2.45;1.67;;;10.40;1.00;;;;;;5018271;28;20393;-89
2023/11/03 14:15:56;;;;;;;2.78;1.00;;;12.50;1.00;;;;;;5058129;28;20893;-88
2023/11/03 14:21:41;;;;;;;2.00;0.80;;;11.00;1.00;;;;;;5072712;28;20396;-88
2023/11/03 14:24:48;;;;;;;1.40;0.80;;;13.50;1.00;;;;;;5056511;28;20401;-83
2023/11/03 14:31:33;;;;;;;2.67;1.10;;;10.40;1.00;;;;;;5029363;28;20387;-87
2023/11/03 14:34:32;;;;;;;;;;;;;;;;;;;;;
2023/11/03 14:37:45;;;;;;;2.75;1.08;;;10.00;1.00;;;;;;5062684;28;20410;-87
2023/11/03 14:41:00;;;;;;;1.83;0.70;;;10.80;1.00;;;;;;4980990;28;20391;-87
2023/11/03 14:43:37;;;;;;;1.60;0.82;;;9.80;1.00;;;;;;4987207;28;20933;-87
2023/11/03 15:00:30;;;;;;;;;;;;;;;;;;;;;
2023/11/03 15:07:04;;;;;;;1.77;1.00;;;10.70;1.00;;;;;;5084480;28;20482;-87
2023/11/03 15:13:43;;;;;;;;;;;;;;;;;;;;;
2023/11/03 15:20:37;;;;;;;1.60;1.10;;;9.80;1.00;;;;;;5036430;28;20745;-88
2023/11/03 15:23:58;;;;;;;1.30;1.00;;;9.70;1.00;;;;;;5033543;28;20809;-87
2023/11/03 15:27:34;;;;;;;2.97;1.08;;;12.80;1.00;;;;;;5055949;28;21025;-88
2023/11/03 15:34:28;;;;;;;4.18;1.40;;;10.60;1.00;;;;;;4959926;28;20436;-87
2023/11/03 15:41:15;;;;;;;;;;;;;;;;;;;;;
2023/11/03 15:48:11;;;;;;;2.20;1.05;;;9.90;1.00;;;;;;4942319;28;20408;-88
2023/11/03 16:00:53;;;;;;;;;;;;;;;;;;;;;
2023/11/03 16:04:13;;;;;;;3.78;1.60;;;10.00;1.00;;;;;;4975566;28;20466;-87
2023/11/03 16:10:12;;;;;;;3.10;1.25;;;10.10;1.00;;;;;;4954063;28;20420;-87
2023/11/03 16:12:47;;;;;;;3.35;1.35;;;10.40;1.00;;;;;;4973502;28;20399;-87
2023/11/03 16:15:28;;;;;;;;;;;;;;;;;;;;;
2023/11/03 16:18:00;;;;;;;2.60;1.10;;;8.70;1.00;;;;;;4993056;28;20405;-88
2023/11/03 16:20:26;;;;;;;2.20;1.27;;;11.70;1.00;;;;;;4992617;28;20410;-87
2023/11/03 16:31:03;;;;;;;1.73;1.23;;;12.00;1.00;;;;;;4901132;29;20401;-87
2023/11/03 16:47:27;;;;;;;;;;;;;;;;;;;;;
2023/11/03 17:21:32;;;;;;;1.23;1.10;;;9.60;1.00;;;;;;4970473;28;20815;-87
2023/11/03 17:35:19;;;;;;;3.00;1.00;;;11.60;1.00;;;;;;5010736;28;20535;-86
2023/11/03 17:48:55;;;;;;;4.00;1.13;;;12.40;1.00;;;;;;4908491;29;20488;-86
2023/11/03 17:51:28;;;;;;;2.35;1.20;;;9.10;1.00;;;;;;4922211;29;20780;-87
2023/11/03 17:54:58;;;;;;;2.35;1.10;;;9.20;1.00;;;;;;4973758;28;20464;-86
2023/11/03 17:57:45;;;;;;;3.60;1.30;;;11.80;1.00;;;;;;4860196;29;20416;-85
2023/11/03 18:00:47;;;;;;;1.90;1.17;;;12.00;1.00;;;;;;4843184;29;20946;-86
2023/11/03 18:03:47;;;;;;;2.80;1.20;;;9.50;1.00;;;;;;4857068;29;20509;-86
2023/11/03 18:06:47;;;;;;;3.88;1.20;;;11.50;1.00;;;;;;4875798;29;20437;-86